createdAt,value
2019-04-19T00:01:18.461Z,6.10
2019-04-19T00:03:48.730Z,6.13
2019-04-19T00:06:29.450Z,5.90
2019-04-19T00:09:10.437Z,5.53
2019-04-19T00:11:33.474Z,5.47
2019-04-19T00:13:55.748Z,5.20
2019-04-19T00:16:24.293Z,5.10
2019-04-19T00:19:18.388Z,5.00
2019-04-19T00:21:39.477Z,5.50
2019-04-19T00:23:55.223Z,4.83
2019-04-19T00:26:24.573Z,4.50
2019-04-19T00:29:00.624Z,4.80
2019-04-19T00:31:34.083Z,4.90
2019-04-19T00:33:57.989Z,5.20
2019-04-19T00:36:25.912Z,5.07
2019-04-19T00:39:16.212Z,5.53
2019-04-19T00:42:00.957Z,5.33
2019-04-19T00:44:49.120Z,5.70
2019-04-19T00:47:17.755Z,6.20
2019-04-19T00:49:33.660Z,6.50
2019-04-19T00:52:05.172Z,5.70
2019-04-19T00:54:34.169Z,6.87
2019-04-19T00:57:03.038Z,6.70
2019-04-19T00:59:35.818Z,6.80
2019-04-19T01:02:04.727Z,7.43
2019-04-19T01:04:29.921Z,7.80
2019-04-19T01:07:00.933Z,7.57
2019-04-19T01:09:38.565Z,7.67
2019-04-19T01:12:10.754Z,7.33
2019-04-19T01:14:38.215Z,6.97
2019-04-19T01:17:13.909Z,7.53
2019-04-19T01:19:30.190Z,7.77
2019-04-19T01:22:01.778Z,7.03
2019-04-19T01:24:33.388Z,6.83
2019-04-19T01:27:00.669Z,7.40
2019-04-19T01:29:31.354Z,6.70
2019-04-19T01:32:06.126Z,7.27
2019-04-19T01:34:31.291Z,6.80
2019-04-19T01:37:03.587Z,6.60
2019-04-19T01:39:51.197Z,6.87
2019-04-19T01:42:21.120Z,6.50
2019-04-19T01:44:53.342Z,7.17
2019-04-19T01:47:52.645Z,7.07
2019-04-19T01:50:24.712Z,7.47
2019-04-19T01:53:03.518Z,6.93
2019-04-19T01:55:20.838Z,7.37
2019-04-19T01:57:43.350Z,7.10
2019-04-19T02:00:25.316Z,7.20
2019-04-19T02:02:52.086Z,7.63
2019-04-19T02:05:17.921Z,8.10
2019-04-19T02:07:48.692Z,7.57
2019-04-19T02:11:00.856Z,6.93
2019-04-19T02:13:31.025Z,7.80
2019-04-19T02:15:54.783Z,7.77
2019-04-19T02:18:27.393Z,7.37
2019-04-19T02:20:54.557Z,6.87
2019-04-19T02:23:24.105Z,7.00
2019-04-19T02:25:59.265Z,7.47
2019-04-19T02:28:29.358Z,7.03
2019-04-19T02:31:10.689Z,7.73
2019-04-19T02:33:55.090Z,7.80
2019-04-19T02:36:25.187Z,7.10
2019-04-19T02:39:02.089Z,8.27
2019-04-19T02:41:29.940Z,7.20
2019-04-19T02:46:40.622Z,7.70
2019-04-19T02:51:26.217Z,7.50
2019-04-19T02:53:56.169Z,8.07
2019-04-19T02:57:05.770Z,8.37
2019-04-19T02:59:49.184Z,7.47
2019-04-19T03:04:55.249Z,7.57
2019-04-19T03:06:52.041Z,8.20
2019-04-19T03:09:17.585Z,7.17
2019-04-19T03:12:03.515Z,6.97
2019-04-19T03:14:35.516Z,7.57
2019-04-19T03:17:05.547Z,7.17
2019-04-19T03:19:33.174Z,7.80
2019-04-19T03:22:01.520Z,7.70
2019-04-19T03:24:36.857Z,6.87
2019-04-19T03:27:00.156Z,7.97
2019-04-19T03:29:27.592Z,7.60
2019-04-19T03:32:41.111Z,9.10
2019-04-19T03:37:07.637Z,7.40
2019-04-19T03:39:44.583Z,7.70
2019-04-19T03:43:02.684Z,7.93
2019-04-19T03:45:19.204Z,7.50
2019-04-19T03:47:54.695Z,7.37
2019-04-19T03:50:20.018Z,7.73
2019-04-19T03:52:50.067Z,7.80
2019-04-19T03:55:22.342Z,8.43
2019-04-19T03:57:42.440Z,8.77
2019-04-19T04:00:04.806Z,7.60
2019-04-19T04:02:36.842Z,7.60
2019-04-19T04:05:09.756Z,8.83
2019-04-19T04:07:35.951Z,8.73
2019-04-19T04:10:21.039Z,9.77
2019-04-19T04:13:24.326Z,8.87
2019-04-19T04:16:09.906Z,9.07
2019-04-19T04:18:32.337Z,10.23
2019-04-19T04:21:02.262Z,9.83
2019-04-19T04:23:37.498Z,9.07
2019-04-19T04:26:08.325Z,9.83
2019-04-19T04:28:45.880Z,9.67
2019-04-19T04:31:13.362Z,9.40
2019-04-19T04:33:46.989Z,9.47
2019-04-19T04:36:25.430Z,9.50
2019-04-19T04:38:38.400Z,7.40
2019-04-19T04:41:11.191Z,8.20
2019-04-19T04:43:49.444Z,7.37
2019-04-19T04:46:46.307Z,7.57
2019-04-19T04:49:30.697Z,7.60
2019-04-19T04:51:52.276Z,7.33
2019-04-19T04:54:18.591Z,7.73
2019-04-19T04:57:02.429Z,8.77
2019-04-19T04:59:24.088Z,9.10
2019-04-19T05:02:03.023Z,9.40
2019-04-19T05:04:34.821Z,9.00
2019-04-19T05:07:10.227Z,8.33
2019-04-19T05:09:38.930Z,9.57
2019-04-19T05:12:44.602Z,8.70
2019-04-19T05:14:43.662Z,8.27
2019-04-19T05:17:30.466Z,8.23
2019-04-19T05:19:48.981Z,8.30
2019-04-19T05:22:11.737Z,7.77
2019-04-19T05:24:51.785Z,8.10
2019-04-19T05:27:22.148Z,9.17
2019-04-19T05:29:34.398Z,8.83
2019-04-19T05:32:09.277Z,8.13
2019-04-19T05:34:46.590Z,7.03
2019-04-19T05:37:13.991Z,8.77
2019-04-19T05:40:09.593Z,7.33
2019-04-19T05:43:02.148Z,8.30
2019-04-19T05:45:42.940Z,8.67
2019-04-19T05:47:56.684Z,8.67
2019-04-19T05:50:36.039Z,8.40
2019-04-19T05:53:04.273Z,8.80
2019-04-19T05:55:21.181Z,8.67
2019-04-19T05:58:06.337Z,7.67
2019-04-19T06:00:42.187Z,8.90
2019-04-19T06:03:06.473Z,8.37
2019-04-19T06:05:52.903Z,8.70
2019-04-19T06:08:05.368Z,7.87
2019-04-19T06:10:31.427Z,8.03
2019-04-19T06:13:01.510Z,8.80
2019-04-19T06:15:49.556Z,8.33
2019-04-19T06:18:31.862Z,7.93
2019-04-19T06:21:10.522Z,7.67
2019-04-19T06:23:45.545Z,7.50
2019-04-19T06:26:39.850Z,7.97
2019-04-19T06:28:52.312Z,7.87
2019-04-19T06:31:20.046Z,8.37
2019-04-19T06:33:43.095Z,8.07
2019-04-19T06:35:58.908Z,7.70
2019-04-19T06:38:22.687Z,7.43
2019-04-19T06:40:57.860Z,8.63
2019-04-19T06:43:34.814Z,8.63
2019-04-19T06:46:05.746Z,8.70
2019-04-19T06:48:27.074Z,7.67
2019-04-19T06:50:57.432Z,6.70
2019-04-19T06:53:23.207Z,6.97
2019-04-19T06:56:00.353Z,7.10
2019-04-19T06:58:27.287Z,6.60
2019-04-19T07:01:04.424Z,6.87
2019-04-19T07:03:23.671Z,7.20
2019-04-19T07:06:09.062Z,7.40
2019-04-19T07:09:04.091Z,6.50
2019-04-19T07:11:16.402Z,7.20
2019-04-19T07:13:37.425Z,7.30
2019-04-19T07:16:19.299Z,7.50
2019-04-19T07:18:39.170Z,7.50
2019-04-19T07:21:16.309Z,7.80
2019-04-19T07:23:45.144Z,6.93
2019-04-19T07:26:20.399Z,6.73
2019-04-19T07:28:30.638Z,6.97
2019-04-19T07:31:02.309Z,7.00
2019-04-19T07:33:41.494Z,7.33
2019-04-19T07:36:16.902Z,16.93
2019-04-19T07:38:55.184Z,8.00
2019-04-19T07:41:19.238Z,7.27
2019-04-19T07:43:59.338Z,6.73
2019-04-19T07:46:39.873Z,6.70
2019-04-19T07:48:53.609Z,6.70
2019-04-19T07:51:28.672Z,6.97
2019-04-19T07:53:54.635Z,6.70
2019-04-19T07:59:20.307Z,6.27
2019-04-19T08:02:07.273Z,8.30
2019-04-19T08:04:38.052Z,6.93
2019-04-19T08:06:53.476Z,7.20
2019-04-19T08:09:43.090Z,6.87
2019-04-19T08:14:26.233Z,7.30
2019-04-19T08:17:30.697Z,6.53
2019-04-19T08:29:13.311Z,6.70
2019-04-19T08:31:31.862Z,6.60
2019-04-19T08:34:02.729Z,6.17
2019-04-19T08:36:42.285Z,6.40
2019-04-19T08:39:20.702Z,6.37
2019-04-19T08:41:57.378Z,6.40
2019-04-19T08:44:18.053Z,7.27
2019-04-19T08:46:43.022Z,6.10
2019-04-19T08:49:35.174Z,6.90
2019-04-19T08:52:08.433Z,6.77
2019-04-19T08:54:57.795Z,6.20
2019-04-19T08:57:12.552Z,6.43
2019-04-19T08:59:54.040Z,6.60
2019-04-19T09:02:28.840Z,6.70
2019-04-19T09:05:02.984Z,5.53
2019-04-19T09:10:17.496Z,5.83
2019-04-19T09:12:31.027Z,6.20
2019-04-19T09:15:02.194Z,5.30
2019-04-19T09:17:47.502Z,5.30
2019-04-19T09:22:31.623Z,6.43
2019-04-19T09:24:54.862Z,5.60
2019-04-19T09:27:52.208Z,5.57
2019-04-19T09:30:08.847Z,5.90
2019-04-19T09:32:21.570Z,6.07
2019-04-19T09:34:55.882Z,5.40
2019-04-19T09:37:33.692Z,5.87
2019-04-19T09:39:59.825Z,5.70
2019-04-19T09:42:36.239Z,5.67
2019-04-19T09:44:54.124Z,5.47
2019-04-19T09:47:20.885Z,6.03
2019-04-19T09:50:03.984Z,5.80
2019-04-19T09:52:42.760Z,6.10
2019-04-19T09:55:18.390Z,5.80
2019-04-19T09:57:37.070Z,5.73
2019-04-19T10:00:02.129Z,6.67
2019-04-19T10:02:28.873Z,6.00
2019-04-19T10:04:53.134Z,6.37
2019-04-19T10:07:22.902Z,5.40
2019-04-19T10:09:57.067Z,5.90
2019-04-19T10:12:22.300Z,6.83
2019-04-19T10:14:51.448Z,6.77
2019-04-19T10:17:22.521Z,6.67
2019-04-19T10:19:51.348Z,6.83
2019-04-19T10:22:20.862Z,7.00
2019-04-19T10:24:52.220Z,6.33
2019-04-19T10:27:29.730Z,5.30
2019-04-19T10:29:59.817Z,5.67
2019-04-19T10:32:32.887Z,6.23
2019-04-19T10:35:01.903Z,5.97
2019-04-19T10:37:31.583Z,5.67
2019-04-19T10:40:01.985Z,5.80
2019-04-19T10:42:31.538Z,5.37
2019-04-19T10:45:00.406Z,5.27
2019-04-19T10:47:29.482Z,5.10
2019-04-19T10:50:11.854Z,5.30
2019-04-19T10:52:29.310Z,5.70
2019-04-19T10:54:59.340Z,4.90
2019-04-19T10:57:29.708Z,5.50
2019-04-19T11:00:01.007Z,5.50
2019-04-19T11:02:32.118Z,5.20
2019-04-19T11:05:02.857Z,5.27
2019-04-19T11:07:32.801Z,5.00
2019-04-19T11:10:02.055Z,5.17
2019-04-19T11:12:32.176Z,4.90
2019-04-19T11:15:02.509Z,5.20
2019-04-19T11:17:31.741Z,5.03
2019-04-19T11:20:17.876Z,5.20
2019-04-19T11:22:32.080Z,5.07
2019-04-19T11:25:02.023Z,5.17
2019-04-19T11:27:31.112Z,4.87
2019-04-19T11:30:05.334Z,5.27
2019-04-19T11:32:48.661Z,5.53
2019-04-19T11:35:17.423Z,5.43
2019-04-19T11:37:47.379Z,5.70
2019-04-19T11:40:17.324Z,5.53
2019-04-19T11:42:46.283Z,5.50
2019-04-19T11:45:15.777Z,5.03
2019-04-19T11:47:45.134Z,5.57
2019-04-19T11:50:14.132Z,5.13
2019-04-19T11:53:06.148Z,5.83
2019-04-19T11:55:38.344Z,5.50
2019-04-19T11:58:08.547Z,4.43
2019-04-19T12:00:43.657Z,5.30
2019-04-19T12:03:16.291Z,5.13
2019-04-19T12:05:44.773Z,4.80
2019-04-19T12:08:13.259Z,4.93
2019-04-19T12:10:42.005Z,5.37
2019-04-19T12:13:11.038Z,17.47
2019-04-19T12:15:40.084Z,13.40
2019-04-19T12:18:08.763Z,9.10
2019-04-19T12:20:37.473Z,7.07
2019-04-19T12:23:07.349Z,4.80
2019-04-19T12:25:37.578Z,5.43
2019-04-19T12:28:06.139Z,4.47
2019-04-19T12:30:38.421Z,4.87
2019-04-19T12:33:05.619Z,5.00
2019-04-19T12:35:34.972Z,4.50
2019-04-19T12:38:03.963Z,5.00
2019-04-19T12:40:38.383Z,4.67
2019-04-19T12:43:07.720Z,4.40
2019-04-19T12:45:36.382Z,4.50
2019-04-19T12:48:05.321Z,5.10
2019-04-19T12:50:36.165Z,5.00
2019-04-19T12:53:04.330Z,6.53
2019-04-19T12:55:32.872Z,6.87
2019-04-19T12:58:02.014Z,5.67
2019-04-19T13:00:50.627Z,4.07
2019-04-19T13:03:38.034Z,4.63
2019-04-19T13:06:09.433Z,4.10
2019-04-19T13:08:39.067Z,4.67
2019-04-19T13:11:09.081Z,4.30
2019-04-19T13:13:37.791Z,4.40
2019-04-19T13:16:06.413Z,4.60
2019-04-19T13:18:36.163Z,4.80
2019-04-19T13:21:06.023Z,4.53
2019-04-19T13:23:34.690Z,5.03
2019-04-19T13:26:03.366Z,5.30
2019-04-19T13:28:33.278Z,4.63
2019-04-19T13:31:02.823Z,4.80
2019-04-19T13:33:32.674Z,4.30
2019-04-19T13:36:03.521Z,4.30
2019-04-19T13:39:03.820Z,4.57
2019-04-19T13:41:54.775Z,4.30
2019-04-19T13:44:23.310Z,4.40
2019-04-19T13:46:52.916Z,4.60
2019-04-19T13:49:22.402Z,4.13
2019-04-19T13:51:54.510Z,4.43
2019-04-19T13:54:23.105Z,4.07
2019-04-19T13:56:52.712Z,4.27
2019-04-19T13:59:22.376Z,4.50
2019-04-19T14:01:52.416Z,4.10
2019-04-19T14:04:21.984Z,4.53
2019-04-19T14:06:50.683Z,4.00
2019-04-19T14:09:20.984Z,4.23
2019-04-19T14:11:49.608Z,4.30
2019-04-19T14:14:18.520Z,4.50
2019-04-19T14:16:47.918Z,4.27
2019-04-19T14:19:16.566Z,4.40
2019-04-19T14:21:45.076Z,4.33
2019-04-19T14:24:13.636Z,4.23
2019-04-19T14:26:48.698Z,3.93
2019-04-19T14:29:12.898Z,4.13
2019-04-19T14:31:42.154Z,4.37
2019-04-19T14:34:11.106Z,4.60
2019-04-19T14:36:40.232Z,9.83
2019-04-19T14:39:09.049Z,6.30
2019-04-19T14:41:38.054Z,13.33
2019-04-19T14:44:07.228Z,5.93
2019-04-19T14:46:36.666Z,4.57
2019-04-19T14:49:05.294Z,4.70
2019-04-19T14:51:37.075Z,4.20
2019-04-19T14:54:04.780Z,4.50
2019-04-19T14:56:34.055Z,4.43
2019-04-19T14:59:03.026Z,6.17
2019-04-19T15:01:57.293Z,31.33
2019-04-19T15:04:54.166Z,5.50
2019-04-19T15:07:23.067Z,4.70
2019-04-19T15:09:51.647Z,4.17
2019-04-19T15:12:20.699Z,3.93
2019-04-19T15:14:49.563Z,4.47
2019-04-19T15:17:19.424Z,3.90
2019-04-19T15:19:48.352Z,5.40
2019-04-19T15:22:17.261Z,5.50
2019-04-19T15:24:47.143Z,5.10
2019-04-19T15:27:16.912Z,5.80
2019-04-19T15:29:45.581Z,5.73
2019-04-19T15:32:14.650Z,6.97
2019-04-19T15:34:43.524Z,8.10
2019-04-19T15:37:16.269Z,6.57
2019-04-19T15:39:46.231Z,6.10
2019-04-19T15:42:16.185Z,5.47
2019-04-19T15:44:45.094Z,5.40
2019-04-19T15:47:14.700Z,5.30
2019-04-19T15:49:44.025Z,4.93
2019-04-19T15:52:12.600Z,3.30
2019-04-19T15:54:41.910Z,3.13
2019-04-19T15:57:10.496Z,2.90
2019-04-19T15:59:39.249Z,2.10
2019-04-19T16:02:29.868Z,2.20
2019-04-19T16:05:36.088Z,2.07
2019-04-19T16:08:24.778Z,2.37
2019-04-19T16:11:22.710Z,2.50
2019-04-19T16:13:52.157Z,3.03
2019-04-19T16:16:22.865Z,2.70
2019-04-19T16:18:52.103Z,2.13
2019-04-19T16:21:28.251Z,3.10
2019-04-19T16:23:51.359Z,3.13
2019-04-19T16:26:21.133Z,3.00
2019-04-19T16:28:49.771Z,3.20
2019-04-19T16:31:18.380Z,3.80
2019-04-19T16:33:47.953Z,3.27
2019-04-19T16:36:16.894Z,3.53
2019-04-19T16:38:46.652Z,3.60
2019-04-19T16:41:15.427Z,4.83
2019-04-19T16:43:43.847Z,4.10
2019-04-19T16:46:18.595Z,10.40
2019-04-19T16:48:42.852Z,6.70
2019-04-19T16:51:12.593Z,6.57
2019-04-19T16:53:42.265Z,5.40
2019-04-19T16:56:11.958Z,4.27
2019-04-19T16:58:40.594Z,5.07
2019-04-19T17:01:10.308Z,7.17
2019-04-19T17:03:39.494Z,11.93
2019-04-19T17:06:08.696Z,7.57
2019-04-19T17:08:38.595Z,6.07
2019-04-19T17:11:07.904Z,6.57
2019-04-19T17:13:36.795Z,4.63
2019-04-19T17:16:17.784Z,4.40
2019-04-19T17:19:04.344Z,4.87
2019-04-19T17:21:46.215Z,6.20
2019-04-19T17:24:04.968Z,5.50
2019-04-19T17:26:33.561Z,5.80
2019-04-19T17:29:02.041Z,6.47
2019-04-19T17:31:31.972Z,5.63
2019-04-19T17:34:01.884Z,5.70
2019-04-19T17:36:30.723Z,5.90
2019-04-19T17:39:00.070Z,5.73
2019-04-19T17:41:28.828Z,6.23
2019-04-19T17:43:57.502Z,5.50
2019-04-19T17:46:26.500Z,5.53
2019-04-19T17:48:55.255Z,6.03
2019-04-19T17:51:24.892Z,7.27
2019-04-19T17:53:53.909Z,6.77
2019-04-19T17:56:23.695Z,6.30
2019-04-19T17:58:52.436Z,6.47
2019-04-19T18:01:22.124Z,5.30
2019-04-19T18:03:51.261Z,5.53
2019-04-19T18:06:20.369Z,4.63
2019-04-19T18:08:49.181Z,4.67
2019-04-19T18:11:23.982Z,4.57
2019-04-19T18:13:49.035Z,4.30
2019-04-19T18:16:18.564Z,4.87
2019-04-19T18:18:49.870Z,4.87
2019-04-19T18:21:17.847Z,5.23
2019-04-19T18:23:52.804Z,5.07
2019-04-19T18:26:24.401Z,5.90
2019-04-19T18:28:49.730Z,6.17
2019-04-19T18:31:25.977Z,6.50
2019-04-19T18:33:58.858Z,7.20
2019-04-19T18:36:25.265Z,8.53
2019-04-19T18:38:51.911Z,8.97
2019-04-19T18:41:21.112Z,8.57
2019-04-19T18:44:02.018Z,7.83
2019-04-19T18:46:20.580Z,8.97
2019-04-19T18:48:49.573Z,9.10
2019-04-19T18:51:24.685Z,8.33
2019-04-19T18:53:59.887Z,7.43
2019-04-19T18:56:22.153Z,7.10
2019-04-19T18:58:50.263Z,7.10
2019-04-19T19:01:27.116Z,7.00
2019-04-19T19:03:50.143Z,7.10
2019-04-19T19:06:20.066Z,7.83
2019-04-19T19:08:54.393Z,7.83
2019-04-19T19:11:21.387Z,8.60
2019-04-19T19:13:51.080Z,8.50
2019-04-19T19:16:23.514Z,8.23
2019-04-19T19:18:52.684Z,8.20
2019-04-19T19:21:20.451Z,7.60
2019-04-19T19:24:16.923Z,7.60
2019-04-19T19:26:27.477Z,6.93
2019-04-19T19:28:50.202Z,6.73
2019-04-19T19:31:19.052Z,7.67
2019-04-19T19:33:50.170Z,7.37
2019-04-19T19:36:23.362Z,8.63
2019-04-19T19:39:00.349Z,8.53
2019-04-19T19:41:42.407Z,7.83
2019-04-19T19:44:05.919Z,8.07
2019-04-19T19:46:47.556Z,7.50
2019-04-19T19:49:29.141Z,7.80
2019-04-19T19:51:39.542Z,9.00
2019-04-19T19:54:37.237Z,9.30
2019-04-19T19:56:53.902Z,8.17
2019-04-19T19:59:07.643Z,8.40
2019-04-19T20:01:37.238Z,8.70
2019-04-19T20:03:58.503Z,9.63
2019-04-19T20:06:30.712Z,8.00
2019-04-19T20:08:59.284Z,7.60
2019-04-19T20:11:31.087Z,8.17
2019-04-19T20:14:01.127Z,7.63
2019-04-19T20:16:30.590Z,8.07
2019-04-19T20:19:02.075Z,8.90
2019-04-19T20:21:30.300Z,9.57
2019-04-19T20:24:08.351Z,9.43
2019-04-19T20:26:35.954Z,9.87
2019-04-19T20:29:06.939Z,10.60
2019-04-19T20:31:34.495Z,11.40
2019-04-19T20:34:02.638Z,11.97
2019-04-19T20:36:49.688Z,10.37
2019-04-19T20:39:27.091Z,10.53
2019-04-19T20:41:51.874Z,9.57
2019-04-19T20:44:40.090Z,9.20
2019-04-19T20:46:50.470Z,9.87
2019-04-19T20:49:19.329Z,11.47
2019-04-19T20:52:03.110Z,12.03
2019-04-19T20:54:49.340Z,12.27
2019-04-19T20:57:35.375Z,11.70
2019-04-19T20:59:50.709Z,11.50
2019-04-19T21:02:23.847Z,11.73
2019-04-19T21:04:52.676Z,12.17
2019-04-19T21:07:20.058Z,11.83
2019-04-19T21:09:47.486Z,11.63
2019-04-19T21:12:22.589Z,10.50
2019-04-19T21:14:47.073Z,8.77
2019-04-19T21:17:16.996Z,10.27
2019-04-19T21:19:48.725Z,9.60
2019-04-19T21:22:23.727Z,9.00
2019-04-19T21:25:02.113Z,9.17
2019-04-19T21:27:22.462Z,7.87
2019-04-19T21:29:48.051Z,8.33
2019-04-19T21:32:24.287Z,8.33
2019-04-19T21:34:48.176Z,8.63
2019-04-19T21:37:23.350Z,8.73
2019-04-19T21:39:51.220Z,8.37
2019-04-19T21:42:20.976Z,8.33
2019-04-19T21:44:52.691Z,8.33
2019-04-19T21:47:19.866Z,8.87
2019-04-19T21:49:53.132Z,9.50
2019-04-19T21:52:21.937Z,8.67
2019-04-19T21:54:51.112Z,9.07
2019-04-19T21:57:26.396Z,8.67
2019-04-19T21:59:50.403Z,8.70
2019-04-19T22:02:33.195Z,8.57
2019-04-19T22:04:57.380Z,9.33
2019-04-19T22:07:26.013Z,9.47
2019-04-19T22:09:58.897Z,10.10
2019-04-19T22:12:26.258Z,9.13
2019-04-19T22:14:59.945Z,11.30
2019-04-19T22:17:26.858Z,12.00
2019-04-19T22:19:57.539Z,11.37
2019-04-19T22:22:29.989Z,11.23
2019-04-19T22:24:59.829Z,11.07
2019-04-19T22:27:27.441Z,11.33
2019-04-19T22:29:56.099Z,10.77
2019-04-19T22:32:25.339Z,12.20
2019-04-19T22:34:54.837Z,12.63
2019-04-19T22:37:29.086Z,12.83
2019-04-19T22:39:54.115Z,11.70
2019-04-19T22:42:22.590Z,10.60
2019-04-19T22:44:51.024Z,10.47
2019-04-19T22:47:23.445Z,10.60
2019-04-19T22:49:50.016Z,11.20
2019-04-19T22:52:18.651Z,10.60
2019-04-19T22:54:48.729Z,11.67
2019-04-19T22:57:21.952Z,11.07
2019-04-19T22:59:53.336Z,10.97
2019-04-19T23:02:40.701Z,10.67
2019-04-19T23:05:08.673Z,10.67
2019-04-19T23:07:44.927Z,11.83
2019-04-19T23:10:08.842Z,11.03
2019-04-19T23:12:39.590Z,11.50
2019-04-19T23:15:18.644Z,12.23
2019-04-19T23:17:42.633Z,12.97
2019-04-19T23:20:09.598Z,13.27
2019-04-19T23:22:42.605Z,13.07
2019-04-19T23:25:11.264Z,13.40
2019-04-19T23:27:45.984Z,13.37
2019-04-19T23:30:18.809Z,12.47
2019-04-19T23:32:46.286Z,11.53
2019-04-19T23:35:16.250Z,11.27
2019-04-19T23:37:45.439Z,10.90
2019-04-19T23:40:15.143Z,9.73
2019-04-19T23:42:46.812Z,8.20
2019-04-19T23:45:14.877Z,8.80
2019-04-19T23:47:48.265Z,7.90
2019-04-19T23:50:15.485Z,7.87
2019-04-19T23:52:50.973Z,7.57
2019-04-19T23:55:14.900Z,7.50
2019-04-19T23:57:48.504Z,6.97
